sensor_id;sensor_type;location;lat;lon;timestamp;P1;durP1;ratioP1;P2;durP2;ratioP2
68178;SDS011;54998;42.656;23.382;2023-04-03T00:00:18;4.18;;;2.35;;
68178;SDS011;54998;42.656;23.382;2023-04-03T00:02:44;3.67;;;2.35;;
68178;SDS011;54998;42.656;23.382;2023-04-03T00:05:09;3.67;;;2.60;;
68178;SDS011;54998;42.656;23.382;2023-04-03T00:07:35;4.30;;;2.13;;
68178;SDS011;54998;42.656;23.382;2023-04-03T00:10:00;3.03;;;2.15;;
68178;SDS011;54998;42.656;23.382;2023-04-03T00:12:26;3.75;;;1.80;;
68178;SDS011;54998;42.656;23.382;2023-04-03T00:14:51;3.80;;;2.55;;
68178;SDS011;54998;42.656;23.382;2023-04-03T00:17:17;3.80;;;2.20;;
68178;SDS011;54998;42.656;23.382;2023-04-03T00:19:42;3.13;;;2.03;;
68178;SDS011;54998;42.656;23.382;2023-04-03T00:22:07;3.83;;;2.45;;
68178;SDS011;54998;42.656;23.382;2023-04-03T00:24:33;4.47;;;2.50;;
68178;SDS011;54998;42.656;23.382;2023-04-03T00:26:58;3.20;;;1.60;;
68178;SDS011;54998;42.656;23.382;2023-04-03T00:29:23;5.78;;;2.33;;
68178;SDS011;54998;42.656;23.382;2023-04-03T00:31:49;4.30;;;2.08;;
68178;SDS011;54998;42.656;23.382;2023-04-03T00:34:14;3.22;;;1.95;;
68178;SDS011;54998;42.656;23.382;2023-04-03T00:36:40;4.05;;;2.10;;
68178;SDS011;54998;42.656;23.382;2023-04-03T00:39:05;4.57;;;2.00;;
68178;SDS011;54998;42.656;23.382;2023-04-03T00:41:31;3.13;;;2.33;;
68178;SDS011;54998;42.656;23.382;2023-04-03T00:43:57;3.45;;;1.60;;
68178;SDS011;54998;42.656;23.382;2023-04-03T00:46:22;4.05;;;2.03;;
68178;SDS011;54998;42.656;23.382;2023-04-03T00:48:48;4.70;;;1.90;;
68178;SDS011;54998;42.656;23.382;2023-04-03T00:51:16;4.35;;;2.28;;
68178;SDS011;54998;42.656;23.382;2023-04-03T00:53:46;3.97;;;2.20;;
68178;SDS011;54998;42.656;23.382;2023-04-03T00:56:16;3.42;;;1.95;;
68178;SDS011;54998;42.656;23.382;2023-04-03T00:58:54;5.03;;;2.38;;
68178;SDS011;54998;42.656;23.382;2023-04-03T01:01:29;6.75;;;2.92;;
68178;SDS011;54998;42.656;23.382;2023-04-03T01:03:55;3.92;;;2.35;;
68178;SDS011;54998;42.656;23.382;2023-04-03T01:06:24;3.88;;;2.40;;
68178;SDS011;54998;42.656;23.382;2023-04-03T01:08:53;3.92;;;1.65;;
68178;SDS011;54998;42.656;23.382;2023-04-03T01:11:20;3.72;;;1.73;;
68178;SDS011;54998;42.656;23.382;2023-04-03T01:13:46;3.50;;;2.38;;
68178;SDS011;54998;42.656;23.382;2023-04-03T01:16:11;3.97;;;2.45;;
68178;SDS011;54998;42.656;23.382;2023-04-03T01:18:37;3.20;;;2.50;;
68178;SDS011;54998;42.656;23.382;2023-04-03T01:26:46;5.15;;;2.40;;
68178;SDS011;54998;42.656;23.382;2023-04-03T01:29:11;3.35;;;2.20;;
68178;SDS011;54998;42.656;23.382;2023-04-03T01:34:02;4.35;;;3.20;;
68178;SDS011;54998;42.656;23.382;2023-04-03T01:36:29;4.55;;;2.90;;
68178;SDS011;54998;42.656;23.382;2023-04-03T01:38:56;5.68;;;2.47;;
68178;SDS011;54998;42.656;23.382;2023-04-03T01:41:24;2.88;;;2.33;;
68178;SDS011;54998;42.656;23.382;2023-04-03T01:43:50;3.40;;;2.10;;
68178;SDS011;54998;42.656;23.382;2023-04-03T01:46:16;3.75;;;2.55;;
68178;SDS011;54998;42.656;23.382;2023-04-03T01:48:42;4.20;;;2.50;;
68178;SDS011;54998;42.656;23.382;2023-04-03T01:51:08;4.78;;;2.40;;
68178;SDS011;54998;42.656;23.382;2023-04-03T01:53:34;5.43;;;2.90;;
68178;SDS011;54998;42.656;23.382;2023-04-03T01:55:59;8.63;;;3.00;;
68178;SDS011;54998;42.656;23.382;2023-04-03T01:58:25;6.90;;;1.92;;
68178;SDS011;54998;42.656;23.382;2023-04-03T02:00:50;2.97;;;2.00;;
68178;SDS011;54998;42.656;23.382;2023-04-03T02:03:16;2.97;;;1.85;;
68178;SDS011;54998;42.656;23.382;2023-04-03T02:05:42;3.50;;;2.28;;
68178;SDS011;54998;42.656;23.382;2023-04-03T02:08:07;5.25;;;2.45;;
68178;SDS011;54998;42.656;23.382;2023-04-03T02:10:33;3.08;;;2.20;;
68178;SDS011;54998;42.656;23.382;2023-04-03T02:12:58;3.20;;;2.17;;
68178;SDS011;54998;42.656;23.382;2023-04-03T02:15:23;3.55;;;2.33;;
68178;SDS011;54998;42.656;23.382;2023-04-03T02:17:49;3.28;;;1.77;;
68178;SDS011;54998;42.656;23.382;2023-04-03T02:20:15;3.83;;;2.10;;
68178;SDS011;54998;42.656;23.382;2023-04-03T02:22:40;5.63;;;2.53;;
68178;SDS011;54998;42.656;23.382;2023-04-03T02:25:06;5.25;;;2.47;;
68178;SDS011;54998;42.656;23.382;2023-04-03T02:27:31;7.00;;;2.60;;
68178;SDS011;54998;42.656;23.382;2023-04-03T02:29:57;4.88;;;1.95;;
68178;SDS011;54998;42.656;23.382;2023-04-03T02:32:23;3.58;;;2.75;;
68178;SDS011;54998;42.656;23.382;2023-04-03T02:34:48;3.28;;;2.30;;
68178;SDS011;54998;42.656;23.382;2023-04-03T02:37:13;4.40;;;2.30;;
68178;SDS011;54998;42.656;23.382;2023-04-03T02:39:39;4.18;;;1.75;;
68178;SDS011;54998;42.656;23.382;2023-04-03T02:42:04;4.45;;;2.33;;
68178;SDS011;54998;42.656;23.382;2023-04-03T02:44:30;4.47;;;2.50;;
68178;SDS011;54998;42.656;23.382;2023-04-03T02:46:55;6.65;;;2.78;;
68178;SDS011;54998;42.656;23.382;2023-04-03T02:49:20;3.95;;;2.70;;
68178;SDS011;54998;42.656;23.382;2023-04-03T02:51:46;4.22;;;2.55;;
68178;SDS011;54998;42.656;23.382;2023-04-03T02:54:12;4.45;;;3.08;;
68178;SDS011;54998;42.656;23.382;2023-04-03T02:56:38;4.60;;;2.83;;
68178;SDS011;54998;42.656;23.382;2023-04-03T02:59:03;3.95;;;2.80;;
68178;SDS011;54998;42.656;23.382;2023-04-03T03:01:28;5.88;;;3.00;;
68178;SDS011;54998;42.656;23.382;2023-04-03T03:03:56;5.30;;;3.22;;
68178;SDS011;54998;42.656;23.382;2023-04-03T03:06:22;3.20;;;2.33;;
68178;SDS011;54998;42.656;23.382;2023-04-03T03:08:48;2.47;;;1.55;;
68178;SDS011;54998;42.656;23.382;2023-04-03T03:11:13;3.55;;;2.22;;
68178;SDS011;54998;42.656;23.382;2023-04-03T03:13:38;5.13;;;2.58;;
68178;SDS011;54998;42.656;23.382;2023-04-03T03:16:04;6.65;;;3.08;;
68178;SDS011;54998;42.656;23.382;2023-04-03T03:18:30;3.25;;;2.53;;
68178;SDS011;54998;42.656;23.382;2023-04-03T03:20:56;3.30;;;2.45;;
68178;SDS011;54998;42.656;23.382;2023-04-03T03:23:23;4.32;;;2.80;;
68178;SDS011;54998;42.656;23.382;2023-04-03T03:26:01;3.85;;;2.45;;
68178;SDS011;54998;42.656;23.382;2023-04-03T03:28:28;3.47;;;1.88;;
68178;SDS011;54998;42.656;23.382;2023-04-03T03:30:54;4.60;;;2.30;;
68178;SDS011;54998;42.656;23.382;2023-04-03T03:33:19;6.32;;;2.35;;
68178;SDS011;54998;42.656;23.382;2023-04-03T03:35:45;7.15;;;4.95;;
68178;SDS011;54998;42.656;23.382;2023-04-03T03:38:10;9.43;;;4.22;;
68178;SDS011;54998;42.656;23.382;2023-04-03T03:40:36;3.50;;;2.30;;
68178;SDS011;54998;42.656;23.382;2023-04-03T03:43:01;6.53;;;2.30;;
68178;SDS011;54998;42.656;23.382;2023-04-03T03:45:27;3.50;;;2.45;;
68178;SDS011;54998;42.656;23.382;2023-04-03T03:47:52;3.15;;;2.17;;
68178;SDS011;54998;42.656;23.382;2023-04-03T03:50:18;3.92;;;2.63;;
68178;SDS011;54998;42.656;23.382;2023-04-03T03:52:43;3.13;;;2.30;;
68178;SDS011;54998;42.656;23.382;2023-04-03T03:55:09;3.05;;;1.90;;
68178;SDS011;54998;42.656;23.382;2023-04-03T03:57:35;4.60;;;2.50;;
68178;SDS011;54998;42.656;23.382;2023-04-03T04:00:00;4.63;;;2.30;;
68178;SDS011;54998;42.656;23.382;2023-04-03T04:02:26;3.45;;;1.95;;
68178;SDS011;54998;42.656;23.382;2023-04-03T04:04:51;4.38;;;2.50;;
68178;SDS011;54998;42.656;23.382;2023-04-03T04:07:17;3.88;;;2.75;;
68178;SDS011;54998;42.656;23.382;2023-04-03T04:09:42;5.57;;;2.15;;
68178;SDS011;54998;42.656;23.382;2023-04-03T04:12:07;4.60;;;2.60;;
68178;SDS011;54998;42.656;23.382;2023-04-03T04:14:33;7.00;;;2.25;;
68178;SDS011;54998;42.656;23.382;2023-04-03T04:16:58;3.38;;;1.63;;
68178;SDS011;54998;42.656;23.382;2023-04-03T04:19:23;5.32;;;2.30;;
68178;SDS011;54998;42.656;23.382;2023-04-03T04:21:49;8.43;;;3.15;;
68178;SDS011;54998;42.656;23.382;2023-04-03T04:24:15;7.90;;;3.40;;
68178;SDS011;54998;42.656;23.382;2023-04-03T04:26:40;9.55;;;3.50;;
68178;SDS011;54998;42.656;23.382;2023-04-03T04:29:05;13.93;;;5.72;;
68178;SDS011;54998;42.656;23.382;2023-04-03T04:31:31;9.75;;;3.78;;
68178;SDS011;54998;42.656;23.382;2023-04-03T04:33:56;9.20;;;3.67;;
68178;SDS011;54998;42.656;23.382;2023-04-03T04:36:22;5.97;;;3.20;;
68178;SDS011;54998;42.656;23.382;2023-04-03T04:38:47;4.68;;;3.65;;
68178;SDS011;54998;42.656;23.382;2023-04-03T04:41:12;5.32;;;2.35;;
68178;SDS011;54998;42.656;23.382;2023-04-03T04:43:38;6.57;;;2.90;;
68178;SDS011;54998;42.656;23.382;2023-04-03T04:46:04;6.32;;;3.22;;
68178;SDS011;54998;42.656;23.382;2023-04-03T04:48:35;6.07;;;3.15;;
68178;SDS011;54998;42.656;23.382;2023-04-03T04:51:01;6.20;;;4.00;;
68178;SDS011;54998;42.656;23.382;2023-04-03T04:53:26;13.20;;;4.65;;
68178;SDS011;54998;42.656;23.382;2023-04-03T04:55:52;14.45;;;5.70;;
68178;SDS011;54998;42.656;23.382;2023-04-03T04:58:18;14.27;;;5.10;;
68178;SDS011;54998;42.656;23.382;2023-04-03T05:00:44;9.90;;;4.55;;
68178;SDS011;54998;42.656;23.382;2023-04-03T05:03:10;9.43;;;4.78;;
68178;SDS011;54998;42.656;23.382;2023-04-03T05:05:35;9.65;;;4.45;;
68178;SDS011;54998;42.656;23.382;2023-04-03T05:08:01;7.53;;;3.10;;
68178;SDS011;54998;42.656;23.382;2023-04-03T05:10:27;6.32;;;3.03;;
68178;SDS011;54998;42.656;23.382;2023-04-03T05:12:53;5.28;;;2.67;;
68178;SDS011;54998;42.656;23.382;2023-04-03T05:15:18;5.05;;;2.47;;
68178;SDS011;54998;42.656;23.382;2023-04-03T05:17:44;5.88;;;2.80;;
68178;SDS011;54998;42.656;23.382;2023-04-03T05:20:10;6.40;;;2.90;;
68178;SDS011;54998;42.656;23.382;2023-04-03T05:22:36;6.05;;;2.67;;
68178;SDS011;54998;42.656;23.382;2023-04-03T05:25:01;5.10;;;2.28;;
68178;SDS011;54998;42.656;23.382;2023-04-03T05:27:26;4.95;;;2.58;;
68178;SDS011;54998;42.656;23.382;2023-04-03T05:29:53;6.72;;;3.00;;
68178;SDS011;54998;42.656;23.382;2023-04-03T05:32:19;5.65;;;3.55;;
68178;SDS011;54998;42.656;23.382;2023-04-03T05:34:45;7.20;;;2.85;;
68178;SDS011;54998;42.656;23.382;2023-04-03T05:37:10;7.57;;;3.40;;
68178;SDS011;54998;42.656;23.382;2023-04-03T05:39:36;8.73;;;3.13;;
68178;SDS011;54998;42.656;23.382;2023-04-03T05:42:03;11.88;;;4.28;;
68178;SDS011;54998;42.656;23.382;2023-04-03T05:44:28;7.20;;;3.97;;
68178;SDS011;54998;42.656;23.382;2023-04-03T05:46:54;7.13;;;3.90;;
68178;SDS011;54998;42.656;23.382;2023-04-03T05:49:19;8.52;;;4.70;;
68178;SDS011;54998;42.656;23.382;2023-04-03T05:51:44;9.48;;;4.63;;
68178;SDS011;54998;42.656;23.382;2023-04-03T05:54:16;10.68;;;5.90;;
68178;SDS011;54998;42.656;23.382;2023-04-03T05:56:45;9.45;;;5.28;;
68178;SDS011;54998;42.656;23.382;2023-04-03T05:59:10;13.55;;;5.70;;
68178;SDS011;54998;42.656;23.382;2023-04-03T06:01:36;18.40;;;7.85;;
68178;SDS011;54998;42.656;23.382;2023-04-03T06:04:02;11.00;;;6.10;;
68178;SDS011;54998;42.656;23.382;2023-04-03T06:07:13;20.73;;;7.20;;
68178;SDS011;54998;42.656;23.382;2023-04-03T06:09:14;8.68;;;5.30;;
68178;SDS011;54998;42.656;23.382;2023-04-03T06:11:40;9.98;;;5.55;;
68178;SDS011;54998;42.656;23.382;2023-04-03T06:14:06;12.27;;;6.95;;
68178;SDS011;54998;42.656;23.382;2023-04-03T06:16:33;12.00;;;6.38;;
68178;SDS011;54998;42.656;23.382;2023-04-03T06:18:59;13.07;;;7.35;;
68178;SDS011;54998;42.656;23.382;2023-04-03T06:21:24;16.92;;;9.45;;
68178;SDS011;54998;42.656;23.382;2023-04-03T06:23:50;20.60;;;11.38;;
68178;SDS011;54998;42.656;23.382;2023-04-03T06:26:16;30.55;;;13.38;;
68178;SDS011;54998;42.656;23.382;2023-04-03T06:28:41;32.40;;;19.70;;
68178;SDS011;54998;42.656;23.382;2023-04-03T06:31:07;30.83;;;16.08;;
68178;SDS011;54998;42.656;23.382;2023-04-03T06:33:33;28.00;;;15.30;;
68178;SDS011;54998;42.656;23.382;2023-04-03T07:10:57;17.02;;;9.45;;
68178;SDS011;54998;42.656;23.382;2023-04-03T07:13:22;12.52;;;7.43;;
68178;SDS011;54998;42.656;23.382;2023-04-03T07:15:48;13.32;;;5.97;;
68178;SDS011;54998;42.656;23.382;2023-04-03T07:18:14;16.63;;;5.88;;
68178;SDS011;54998;42.656;23.382;2023-04-03T07:20:39;11.63;;;5.88;;
68178;SDS011;54998;42.656;23.382;2023-04-03T07:23:05;14.57;;;8.10;;
68178;SDS011;54998;42.656;23.382;2023-04-03T07:25:30;17.52;;;8.45;;
68178;SDS011;54998;42.656;23.382;2023-04-03T07:27:56;17.92;;;7.82;;
68178;SDS011;54998;42.656;23.382;2023-04-03T07:30:22;16.17;;;9.43;;
68178;SDS011;54998;42.656;23.382;2023-04-03T07:32:48;24.10;;;12.23;;
68178;SDS011;54998;42.656;23.382;2023-04-03T07:35:13;19.23;;;11.13;;
68178;SDS011;54998;42.656;23.382;2023-04-03T07:37:38;23.80;;;14.13;;
68178;SDS011;54998;42.656;23.382;2023-04-03T07:40:04;26.17;;;14.50;;
68178;SDS011;54998;42.656;23.382;2023-04-03T07:42:30;24.63;;;13.13;;
68178;SDS011;54998;42.656;23.382;2023-04-03T07:44:56;22.35;;;12.27;;
68178;SDS011;54998;42.656;23.382;2023-04-03T07:47:22;25.92;;;13.27;;
68178;SDS011;54998;42.656;23.382;2023-04-03T07:49:47;25.38;;;14.45;;
68178;SDS011;54998;42.656;23.382;2023-04-03T07:52:13;33.47;;;16.02;;
68178;SDS011;54998;42.656;23.382;2023-04-03T07:54:40;22.48;;;12.23;;
68178;SDS011;54998;42.656;23.382;2023-04-03T07:57:06;29.63;;;13.18;;
68178;SDS011;54998;42.656;23.382;2023-04-03T07:59:31;24.52;;;12.63;;
68178;SDS011;54998;42.656;23.382;2023-04-03T08:01:57;24.23;;;11.88;;
68178;SDS011;54998;42.656;23.382;2023-04-03T08:04:22;20.42;;;11.60;;
68178;SDS011;54998;42.656;23.382;2023-04-03T08:06:48;23.52;;;12.23;;
68178;SDS011;54998;42.656;23.382;2023-04-03T08:09:14;23.40;;;13.52;;
68178;SDS011;54998;42.656;23.382;2023-04-03T08:11:40;22.70;;;11.77;;
68178;SDS011;54998;42.656;23.382;2023-04-03T08:14:06;19.55;;;11.65;;
68178;SDS011;54998;42.656;23.382;2023-04-03T08:16:41;22.05;;;12.32;;
68178;SDS011;54998;42.656;23.382;2023-04-03T08:19:06;22.25;;;12.60;;
68178;SDS011;54998;42.656;23.382;2023-04-03T08:21:32;24.83;;;12.93;;
68178;SDS011;54998;42.656;23.382;2023-04-03T08:23:58;22.45;;;15.48;;
68178;SDS011;54998;42.656;23.382;2023-04-03T08:26:23;28.55;;;13.35;;
68178;SDS011;54998;42.656;23.382;2023-04-03T08:28:48;22.95;;;13.30;;
68178;SDS011;54998;42.656;23.382;2023-04-03T08:31:15;20.63;;;12.10;;
68178;SDS011;54998;42.656;23.382;2023-04-03T08:33:43;30.75;;;13.70;;
68178;SDS011;54998;42.656;23.382;2023-04-03T08:36:17;23.08;;;12.32;;
68178;SDS011;54998;42.656;23.382;2023-04-03T08:38:47;25.77;;;13.40;;
68178;SDS011;54998;42.656;23.382;2023-04-03T08:41:14;26.38;;;14.80;;
68178;SDS011;54998;42.656;23.382;2023-04-03T08:49:33;26.83;;;14.40;;
68178;SDS011;54998;42.656;23.382;2023-04-03T08:52:01;28.92;;;13.52;;
68178;SDS011;54998;42.656;23.382;2023-04-03T08:54:32;26.13;;;12.43;;
68178;SDS011;54998;42.656;23.382;2023-04-03T08:57:00;20.60;;;11.52;;
68178;SDS011;54998;42.656;23.382;2023-04-03T08:59:30;17.27;;;11.30;;
68178;SDS011;54998;42.656;23.382;2023-04-03T09:01:59;23.08;;;10.43;;
68178;SDS011;54998;42.656;23.382;2023-04-03T09:04:30;20.38;;;10.55;;
68178;SDS011;54998;42.656;23.382;2023-04-03T09:06:58;18.15;;;11.02;;
68178;SDS011;54998;42.656;23.382;2023-04-03T09:29:32;13.65;;;6.55;;
68178;SDS011;54998;42.656;23.382;2023-04-03T09:32:12;11.45;;;6.05;;
68178;SDS011;54998;42.656;23.382;2023-04-03T09:34:56;15.48;;;7.68;;
68178;SDS011;54998;42.656;23.382;2023-04-03T09:40:01;20.33;;;9.10;;
68178;SDS011;54998;42.656;23.382;2023-04-03T09:42:29;19.00;;;8.50;;
68178;SDS011;54998;42.656;23.382;2023-04-03T09:44:57;14.88;;;8.38;;
68178;SDS011;54998;42.656;23.382;2023-04-03T09:47:30;14.43;;;9.85;;
68178;SDS011;54998;42.656;23.382;2023-04-03T09:52:38;11.10;;;7.20;;
68178;SDS011;54998;42.656;23.382;2023-04-03T09:55:07;13.18;;;8.50;;
68178;SDS011;54998;42.656;23.382;2023-04-03T10:00:33;11.40;;;6.97;;
68178;SDS011;54998;42.656;23.382;2023-04-03T10:03:35;12.90;;;6.43;;
68178;SDS011;54998;42.656;23.382;2023-04-03T10:06:02;16.65;;;6.90;;
68178;SDS011;54998;42.656;23.382;2023-04-03T10:08:30;10.52;;;6.60;;
68178;SDS011;54998;42.656;23.382;2023-04-03T10:13:32;14.48;;;6.88;;
68178;SDS011;54998;42.656;23.382;2023-04-03T10:16:08;11.50;;;5.82;;
68178;SDS011;54998;42.656;23.382;2023-04-03T10:23:51;12.40;;;7.20;;
68178;SDS011;54998;42.656;23.382;2023-04-03T10:32:23;10.30;;;4.75;;
68178;SDS011;54998;42.656;23.382;2023-04-03T10:37:49;6.68;;;3.17;;
68178;SDS011;54998;42.656;23.382;2023-04-03T10:40:33;3.63;;;2.47;;
68178;SDS011;54998;42.656;23.382;2023-04-03T10:48:28;6.85;;;4.00;;
68178;SDS011;54998;42.656;23.382;2023-04-03T10:54:11;7.80;;;3.50;;
68178;SDS011;54998;42.656;23.382;2023-04-03T10:57:00;8.90;;;3.47;;
68178;SDS011;54998;42.656;23.382;2023-04-03T10:59:32;5.45;;;2.78;;
68178;SDS011;54998;42.656;23.382;2023-04-03T11:02:06;4.15;;;2.90;;
68178;SDS011;54998;42.656;23.382;2023-04-03T11:04:40;4.40;;;2.03;;
68178;SDS011;54998;42.656;23.382;2023-04-03T11:07:33;4.05;;;2.30;;
68178;SDS011;54998;42.656;23.382;2023-04-03T11:10:03;4.57;;;1.98;;
68178;SDS011;54998;42.656;23.382;2023-04-03T11:12:41;8.00;;;2.50;;
68178;SDS011;54998;42.656;23.382;2023-04-03T11:15:13;5.28;;;3.10;;
68178;SDS011;54998;42.656;23.382;2023-04-03T11:17:52;4.18;;;2.65;;
68178;SDS011;54998;42.656;23.382;2023-04-03T11:25:46;3.15;;;1.88;;
68178;SDS011;54998;42.656;23.382;2023-04-03T11:28:17;2.90;;;1.65;;
68178;SDS011;54998;42.656;23.382;2023-04-03T11:34:04;6.28;;;2.67;;
68178;SDS011;54998;42.656;23.382;2023-04-03T11:36:26;3.20;;;1.67;;
68178;SDS011;54998;42.656;23.382;2023-04-03T11:38:57;3.80;;;2.50;;
68178;SDS011;54998;42.656;23.382;2023-04-03T11:41:43;9.90;;;5.93;;
68178;SDS011;54998;42.656;23.382;2023-04-03T11:46:58;8.95;;;5.07;;
68178;SDS011;54998;42.656;23.382;2023-04-03T12:05:47;4.95;;;3.25;;
68178;SDS011;54998;42.656;23.382;2023-04-03T12:08:23;6.07;;;3.75;;
68178;SDS011;54998;42.656;23.382;2023-04-03T12:14:18;4.45;;;2.60;;
68178;SDS011;54998;42.656;23.382;2023-04-03T12:46:03;4.20;;;2.75;;
68178;SDS011;54998;42.656;23.382;2023-04-03T12:48:30;11.80;;;4.75;;
68178;SDS011;54998;42.656;23.382;2023-04-03T12:50:59;10.48;;;5.40;;
68178;SDS011;54998;42.656;23.382;2023-04-03T12:56:18;11.57;;;6.15;;
68178;SDS011;54998;42.656;23.382;2023-04-03T12:58:44;11.60;;;5.80;;
68178;SDS011;54998;42.656;23.382;2023-04-03T13:01:11;9.68;;;5.28;;
68178;SDS011;54998;42.656;23.382;2023-04-03T13:03:45;6.47;;;4.30;;
68178;SDS011;54998;42.656;23.382;2023-04-03T13:06:17;12.52;;;6.78;;
68178;SDS011;54998;42.656;23.382;2023-04-03T13:08:51;7.32;;;5.65;;
68178;SDS011;54998;42.656;23.382;2023-04-03T13:11:18;16.77;;;9.02;;
68178;SDS011;54998;42.656;23.382;2023-04-03T13:13:56;8.75;;;6.13;;
68178;SDS011;54998;42.656;23.382;2023-04-03T13:16:23;12.88;;;7.10;;
68178;SDS011;54998;42.656;23.382;2023-04-03T13:18:50;9.48;;;6.57;;
68178;SDS011;54998;42.656;23.382;2023-04-03T13:21:19;10.57;;;6.13;;
68178;SDS011;54998;42.656;23.382;2023-04-03T13:23:59;10.80;;;7.20;;
68178;SDS011;54998;42.656;23.382;2023-04-03T13:26:29;7.75;;;4.95;;
68178;SDS011;54998;42.656;23.382;2023-04-03T13:41:41;11.13;;;6.95;;
68178;SDS011;54998;42.656;23.382;2023-04-03T13:44:16;8.65;;;5.60;;
68178;SDS011;54998;42.656;23.382;2023-04-03T13:47:37;10.32;;;6.82;;
68178;SDS011;54998;42.656;23.382;2023-04-03T13:49:42;7.75;;;4.70;;
68178;SDS011;54998;42.656;23.382;2023-04-03T13:54:47;10.15;;;7.05;;
68178;SDS011;54998;42.656;23.382;2023-04-03T13:57:18;10.80;;;6.38;;
68178;SDS011;54998;42.656;23.382;2023-04-03T13:59:43;8.68;;;4.85;;
68178;SDS011;54998;42.656;23.382;2023-04-03T14:04:45;6.75;;;4.25;;
68178;SDS011;54998;42.656;23.382;2023-04-03T14:07:15;7.55;;;5.35;;
68178;SDS011;54998;42.656;23.382;2023-04-03T14:09:43;9.77;;;6.97;;
68178;SDS011;54998;42.656;23.382;2023-04-03T14:12:12;7.10;;;4.63;;
68178;SDS011;54998;42.656;23.382;2023-04-03T14:17:13;10.15;;;5.95;;
68178;SDS011;54998;42.656;23.382;2023-04-03T14:19:42;8.25;;;6.07;;
68178;SDS011;54998;42.656;23.382;2023-04-03T14:25:02;8.10;;;6.00;;
68178;SDS011;54998;42.656;23.382;2023-04-03T14:27:29;10.05;;;6.55;;
68178;SDS011;54998;42.656;23.382;2023-04-03T14:30:00;9.75;;;6.50;;
68178;SDS011;54998;42.656;23.382;2023-04-03T14:32:28;8.82;;;6.32;;
68178;SDS011;54998;42.656;23.382;2023-04-03T14:34:54;9.35;;;6.15;;
68178;SDS011;54998;42.656;23.382;2023-04-03T14:37:24;8.43;;;5.90;;
68178;SDS011;54998;42.656;23.382;2023-04-03T14:39:53;6.18;;;4.10;;
68178;SDS011;54998;42.656;23.382;2023-04-03T14:42:21;8.02;;;4.80;;
68178;SDS011;54998;42.656;23.382;2023-04-03T14:44:51;10.52;;;6.10;;
68178;SDS011;54998;42.656;23.382;2023-04-03T14:47:24;4.88;;;4.15;;
68178;SDS011;54998;42.656;23.382;2023-04-03T14:49:51;8.20;;;5.93;;
68178;SDS011;54998;42.656;23.382;2023-04-03T14:52:27;5.70;;;4.13;;
68178;SDS011;54998;42.656;23.382;2023-04-03T14:55:01;6.85;;;4.70;;
68178;SDS011;54998;42.656;23.382;2023-04-03T14:57:28;9.55;;;5.47;;
68178;SDS011;54998;42.656;23.382;2023-04-03T14:59:54;5.75;;;4.20;;
68178;SDS011;54998;42.656;23.382;2023-04-03T15:02:24;5.80;;;4.35;;
68178;SDS011;54998;42.656;23.382;2023-04-03T15:07:19;5.55;;;3.22;;
68178;SDS011;54998;42.656;23.382;2023-04-03T15:09:45;8.43;;;5.07;;
68178;SDS011;54998;42.656;23.382;2023-04-03T15:12:10;11.30;;;6.18;;
68178;SDS011;54998;42.656;23.382;2023-04-03T15:14:36;6.82;;;3.50;;
68178;SDS011;54998;42.656;23.382;2023-04-03T15:17:02;7.88;;;4.75;;
68178;SDS011;54998;42.656;23.382;2023-04-03T15:19:29;7.32;;;3.75;;
68178;SDS011;54998;42.656;23.382;2023-04-03T15:21:56;5.05;;;3.35;;
68178;SDS011;54998;42.656;23.382;2023-04-03T15:24:21;6.90;;;3.65;;
68178;SDS011;54998;42.656;23.382;2023-04-03T15:26:50;7.22;;;5.28;;
68178;SDS011;54998;42.656;23.382;2023-04-03T15:29:15;6.53;;;4.32;;
68178;SDS011;54998;42.656;23.382;2023-04-03T15:31:40;7.55;;;4.60;;
68178;SDS011;54998;42.656;23.382;2023-04-03T15:34:06;5.18;;;4.07;;
68178;SDS011;54998;42.656;23.382;2023-04-03T15:36:31;4.93;;;3.13;;
68178;SDS011;54998;42.656;23.382;2023-04-03T15:38:56;7.85;;;3.75;;
68178;SDS011;54998;42.656;23.382;2023-04-03T15:41:22;5.57;;;4.15;;
68178;SDS011;54998;42.656;23.382;2023-04-03T15:43:47;8.60;;;4.75;;
68178;SDS011;54998;42.656;23.382;2023-04-03T15:46:13;6.13;;;4.55;;
68178;SDS011;54998;42.656;23.382;2023-04-03T15:48:41;8.05;;;4.85;;
68178;SDS011;54998;42.656;23.382;2023-04-03T15:51:09;10.07;;;5.65;;
68178;SDS011;54998;42.656;23.382;2023-04-03T15:53:53;8.57;;;4.80;;
68178;SDS011;54998;42.656;23.382;2023-04-03T15:56:18;6.25;;;4.38;;
68178;SDS011;54998;42.656;23.382;2023-04-03T15:58:57;8.55;;;5.75;;
68178;SDS011;54998;42.656;23.382;2023-04-03T16:01:22;7.78;;;5.30;;
68178;SDS011;54998;42.656;23.382;2023-04-03T16:03:50;8.18;;;5.57;;
68178;SDS011;54998;42.656;23.382;2023-04-03T16:06:18;6.63;;;4.65;;
68178;SDS011;54998;42.656;23.382;2023-04-03T16:08:44;8.68;;;5.88;;
68178;SDS011;54998;42.656;23.382;2023-04-03T16:11:11;4.90;;;3.70;;
68178;SDS011;54998;42.656;23.382;2023-04-03T16:26:26;11.45;;;6.85;;
68178;SDS011;54998;42.656;23.382;2023-04-03T16:28:54;12.38;;;6.60;;
68178;SDS011;54998;42.656;23.382;2023-04-03T16:31:20;10.45;;;6.75;;
68178;SDS011;54998;42.656;23.382;2023-04-03T16:33:46;13.68;;;7.65;;
68178;SDS011;54998;42.656;23.382;2023-04-03T16:36:12;15.05;;;8.32;;
68178;SDS011;54998;42.656;23.382;2023-04-03T16:38:37;14.85;;;8.15;;
68178;SDS011;54998;42.656;23.382;2023-04-03T16:41:03;9.70;;;7.00;;
68178;SDS011;54998;42.656;23.382;2023-04-03T16:43:32;8.63;;;5.70;;
68178;SDS011;54998;42.656;23.382;2023-04-03T16:46:00;10.02;;;6.75;;
68178;SDS011;54998;42.656;23.382;2023-04-03T16:48:27;10.77;;;7.82;;
68178;SDS011;54998;42.656;23.382;2023-04-03T16:50:53;9.80;;;6.47;;
68178;SDS011;54998;42.656;23.382;2023-04-03T16:53:19;9.48;;;7.00;;
68178;SDS011;54998;42.656;23.382;2023-04-03T16:55:45;10.07;;;6.53;;
68178;SDS011;54998;42.656;23.382;2023-04-03T16:58:11;8.27;;;5.50;;
68178;SDS011;54998;42.656;23.382;2023-04-03T17:00:36;10.07;;;5.63;;
68178;SDS011;54998;42.656;23.382;2023-04-03T17:03:02;6.32;;;4.22;;
68178;SDS011;54998;42.656;23.382;2023-04-03T17:05:28;9.10;;;5.32;;
68178;SDS011;54998;42.656;23.382;2023-04-03T17:07:53;8.80;;;4.85;;
68178;SDS011;54998;42.656;23.382;2023-04-03T17:10:19;9.68;;;5.82;;
68178;SDS011;54998;42.656;23.382;2023-04-03T17:12:44;7.72;;;5.15;;
68178;SDS011;54998;42.656;23.382;2023-04-03T17:15:10;6.80;;;3.85;;
68178;SDS011;54998;42.656;23.382;2023-04-03T17:17:35;8.63;;;4.70;;
68178;SDS011;54998;42.656;23.382;2023-04-03T17:20:02;5.53;;;3.50;;
68178;SDS011;54998;42.656;23.382;2023-04-03T17:22:28;5.95;;;3.67;;
68178;SDS011;54998;42.656;23.382;2023-04-03T17:24:54;7.00;;;4.60;;
68178;SDS011;54998;42.656;23.382;2023-04-03T17:27:19;7.90;;;4.53;;
68178;SDS011;54998;42.656;23.382;2023-04-03T17:29:44;6.00;;;4.07;;
68178;SDS011;54998;42.656;23.382;2023-04-03T17:32:10;5.90;;;4.25;;
68178;SDS011;54998;42.656;23.382;2023-04-03T17:34:35;7.10;;;3.58;;
68178;SDS011;54998;42.656;23.382;2023-04-03T17:37:01;5.05;;;3.15;;
68178;SDS011;54998;42.656;23.382;2023-04-03T17:39:27;5.47;;;4.15;;
68178;SDS011;54998;42.656;23.382;2023-04-03T17:41:52;5.13;;;3.50;;
68178;SDS011;54998;42.656;23.382;2023-04-03T17:44:19;5.75;;;4.18;;
68178;SDS011;54998;42.656;23.382;2023-04-03T17:46:45;6.57;;;3.80;;
68178;SDS011;54998;42.656;23.382;2023-04-03T17:49:10;9.65;;;4.97;;
68178;SDS011;54998;42.656;23.382;2023-04-03T17:51:38;6.63;;;4.35;;
68178;SDS011;54998;42.656;23.382;2023-04-03T17:54:05;8.07;;;5.40;;